Time;durP1;ratioP1;P1;durP2;ratioP2;P2;SDS_P1;SDS_P2;PMS_P1;PMS_P2;Temp;Humidity;BMP_temperature;BMP_pressure;BME280_temperature;BME280_humidity;BME280_pressure;Samples;Min_cycle;Max_cycle;Signal;HPM_P1;HPM_P2
2022/08/18 00:01:21;;;;;;;5.07;4.00;;;;;;;27.92;38.20;100627.75;5086222;28;20745;-61
2022/08/18 00:03:48;;;;;;;4.75;4.10;;;;;;;27.89;38.36;100631.00;5086138;28;20378;-61
2022/08/18 00:06:15;;;;;;;5.45;3.95;;;;;;;27.89;38.24;100631.81;5086435;28;20406;-60
2022/08/18 00:08:40;;;;;;;5.68;4.22;;;;;;;27.84;38.56;100634.59;5085853;28;20567;-60
2022/08/18 00:11:06;;;;;;;7.50;4.40;;;;;;;27.81;38.51;100627.81;5086207;28;20778;-61
2022/08/18 00:13:33;;;;;;;5.85;3.95;;;;;;;27.80;38.69;100637.09;5085920;28;20382;-60
2022/08/18 00:15:58;;;;;;;6.68;4.20;;;;;;;27.79;38.43;100646.34;5082511;28;20455;-60
2022/08/18 00:18:24;;;;;;;5.22;3.95;;;;;;;27.74;38.50;100640.16;5066007;28;20381;-61
2022/08/18 00:20:49;;;;;;;6.37;4.50;;;;;;;27.70;38.44;100647.28;5053203;28;20399;-61
2022/08/18 00:23:15;;;;;;;6.27;4.10;;;;;;;27.72;38.89;100645.06;5052515;28;20921;-61
2022/08/18 00:25:41;;;;;;;6.30;4.30;;;;;;;27.73;38.65;100654.84;5067408;28;20471;-59
2022/08/18 00:28:06;;;;;;;6.75;4.18;;;;;;;27.69;38.90;100657.34;5072307;28;20492;-61
2022/08/18 00:30:33;;;;;;;6.57;4.47;;;;;;;27.68;38.80;100653.00;5071994;28;20387;-60
2022/08/18 00:32:59;;;;;;;5.75;4.25;;;;;;;27.70;38.61;100653.53;5072327;28;20387;-60
2022/08/18 00:35:37;;;;;;;6.95;4.25;;;;;;;27.65;38.82;100648.91;5072009;28;20391;-61
2022/08/18 00:38:05;;;;;;;6.10;4.00;;;;;;;27.63;38.81;100656.56;5071887;28;20761;-60
2022/08/18 00:40:37;;;;;;;4.83;4.20;;;;;;;27.66;38.93;100655.19;5071932;28;20399;-60
2022/08/18 00:43:05;;;;;;;5.68;4.07;;;;;;;27.67;38.77;100656.81;5072184;28;20386;-60
2022/08/18 00:45:35;;;;;;;5.60;4.07;;;;;;;27.65;38.87;100661.72;5071398;28;20478;-61
2022/08/18 00:48:13;;;;;;;5.38;4.20;;;;;;;27.60;38.96;100665.34;5066148;28;20458;-61
2022/08/18 00:50:44;;;;;;;4.97;4.20;;;;;;;27.55;39.26;100670.81;5066821;28;20407;-59
2022/08/18 00:53:17;;;;;;;5.30;4.15;;;;;;;27.52;39.28;100676.03;5067168;28;20388;-60
2022/08/18 00:55:47;;;;;;;4.57;4.05;;;;;;;27.48;38.89;100670.34;5067091;28;20384;-61
2022/08/18 00:58:20;;;;;;;5.57;3.92;;;;;;;27.49;39.14;100668.41;5051936;28;20410;-61
2022/08/18 01:00:49;;;;;;;5.00;4.10;;;;;;;27.49;39.01;100671.94;5046597;28;20398;-60
2022/08/18 01:03:17;;;;;;;4.80;4.10;;;;;;;27.47;38.70;100679.59;5046897;28;20807;-60
2022/08/18 01:07:44;;;;;;;5.20;3.95;;;;;;;27.52;38.93;100678.75;5076928;27;20999;-60
2022/08/18 01:10:13;;;;;;;6.07;4.25;;;;;;;27.58;38.51;100683.03;5067202;28;20482;-60
2022/08/18 01:12:39;;;;;;;6.13;4.07;;;;;;;27.61;38.39;100674.31;5067043;28;20877;-61
2022/08/18 01:15:19;;;;;;;4.50;3.95;;;;;;;27.64;38.60;100681.88;5134080;27;20807;-61
2022/08/18 01:23:38;;;;;;;5.55;3.88;;;;;;;27.51;38.37;100679.81;5097933;28;20433;-61
2022/08/18 01:26:05;;;;;;;4.10;3.72;;;;;;;27.54;38.65;100684.72;5128040;28;20386;-60
2022/08/18 01:28:37;;;;;;;6.57;3.88;;;;;;;27.51;38.69;100686.06;5109526;28;20398;-61
2022/08/18 01:31:04;;;;;;;5.05;3.65;;;;;;;27.50;38.77;100679.03;5124193;28;20383;-61
2022/08/18 01:33:35;;;;;;;4.43;3.92;;;;;;;27.44;38.61;100682.88;5127733;28;20793;-61
2022/08/18 01:36:19;;;;;;;5.00;4.20;;;;;;;27.48;38.25;100688.56;5127764;28;20757;-60
2022/08/18 01:38:49;;;;;;;6.05;3.75;;;;;;;27.42;38.23;100683.16;5127492;28;20371;-61
2022/08/18 01:41:15;;;;;;;5.93;3.88;;;;;;;27.42;38.69;100683.16;5110790;28;20384;-60
2022/08/18 01:43:41;;;;;;;4.63;3.70;;;;;;;27.47;38.64;100685.03;5107226;28;20384;-61
2022/08/18 01:46:07;;;;;;;5.20;3.90;;;;;;;27.43;38.60;100673.88;5109213;28;20384;-60
2022/08/18 01:48:35;;;;;;;5.40;3.83;;;;;;;27.49;38.59;100677.38;5106962;28;20510;-61
2022/08/18 01:51:09;;;;;;;6.17;3.80;;;;;;;27.50;38.58;100675.50;5107044;28;20522;-60
2022/08/18 01:53:35;;;;;;;4.03;3.72;;;;;;;27.44;38.50;100674.69;5106746;28;20752;-61
2022/08/18 01:56:04;;;;;;;5.80;3.88;;;;;;;27.39;38.63;100661.94;5110131;28;20394;-61
2022/08/18 01:58:30;;;;;;;4.50;3.90;;;;;;;27.36;38.49;100661.72;5127357;28;20444;-60
2022/08/18 02:03:00;;;;;;;5.47;3.70;;;;;;;27.35;38.53;100649.19;5066055;28;20453;-59
2022/08/18 02:05:38;;;;;;;4.30;3.75;;;;;;;27.34;38.69;100647.56;5067225;28;20400;-59
2022/08/18 02:08:05;;;;;;;6.15;3.95;;;;;;;27.35;38.77;100655.47;5066804;28;20885;-61
2022/08/18 02:10:30;;;;;;;4.93;3.80;;;;;;;27.32;38.47;100655.22;5067072;28;20384;-61
2022/08/18 02:12:56;;;;;;;4.63;3.67;;;;;;;27.27;38.74;100656.84;5066675;28;20368;-61
2022/08/18 02:15:21;;;;;;;6.77;4.30;;;;;;;27.27;39.02;100659.56;5058454;28;20891;-61
2022/08/18 02:17:47;;;;;;;4.87;3.50;;;;;;;27.23;38.81;100649.53;5046705;28;20451;-60
2022/08/18 02:20:15;;;;;;;4.70;4.00;;;;;;;27.19;39.08;100653.88;5046935;28;20408;-60
2022/08/18 02:22:43;;;;;;;5.60;4.18;;;;;;;27.16;38.79;100660.72;5046468;28;20511;-61
2022/08/18 02:25:10;;;;;;;5.87;3.90;;;;;;;27.12;39.02;100656.94;5046873;28;20497;-61
2022/08/18 02:27:35;;;;;;;6.75;4.00;;;;;;;27.13;38.92;100658.56;5046816;28;20385;-61
2022/08/18 02:30:06;;;;;;;4.40;3.90;;;;;;;27.07;38.95;100652.34;5045937;28;20397;-60
2022/08/18 02:32:31;;;;;;;4.78;3.72;;;;;;;27.08;39.11;100658.59;5046021;28;20424;-61
2022/08/18 02:34:57;;;;;;;6.63;4.28;;;;;;;27.07;39.46;100662.41;5046578;28;20466;-60
2022/08/18 02:37:23;;;;;;;5.43;3.80;;;;;;;27.03;39.73;100661.38;5046223;28;20752;-61
2022/08/18 02:39:49;;;;;;;6.32;4.60;;;;;;;27.03;39.83;100666.81;5046206;28;20390;-61
2022/08/18 02:44:10;;;;;;;6.05;4.07;;;;;;;26.94;39.88;100671.19;5106515;27;20400;-60
2022/08/18 02:46:36;;;;;;;6.18;4.22;;;;;;;26.91;39.95;100658.97;5088148;28;20514;-61
2022/08/18 02:49:03;;;;;;;5.90;4.05;;;;;;;26.88;39.95;100651.38;5086699;28;20394;-60
2022/08/18 02:52:08;;;;;;;5.63;4.07;;;;;;;26.84;39.86;100653.03;5105978;27;20400;-60
2022/08/18 02:56:23;;;;;;;10.95;4.20;;;;;;;26.74;40.18;100648.47;5065908;28;20921;-61
2022/08/18 02:58:55;;;;;;;5.85;4.25;;;;;;;26.72;40.66;100663.44;5066984;28;20403;-60
2022/08/18 03:01:24;;;;;;;8.45;4.20;;;;;;;26.69;40.75;100662.09;5049319;28;20393;-61
2022/08/18 03:03:50;;;;;;;5.65;4.00;;;;;;;26.67;40.18;100661.56;5046770;28;20405;-62
2022/08/18 03:06:17;;;;;;;5.10;4.10;;;;;;;26.63;40.84;100671.34;5046756;28;20393;-61
2022/08/18 03:08:47;;;;;;;5.00;3.90;;;;;;;26.51;40.70;100668.94;5046729;28;20412;-61
2022/08/18 03:12:53;;;;;;;5.60;4.00;;;;;;;26.48;40.84;100680.34;5066007;28;20404;-60
2022/08/18 03:15:19;;;;;;;5.23;3.80;;;;;;;26.47;40.91;100679.53;5060400;28;20835;-61
2022/08/18 03:17:44;;;;;;;4.80;3.83;;;;;;;26.44;41.11;100677.38;5047129;28;20392;-61
2022/08/18 03:20:10;;;;;;;5.75;3.95;;;;;;;26.43;40.85;100683.88;5046477;28;20389;-60
2022/08/18 03:22:36;;;;;;;8.23;4.22;;;;;;;26.43;41.05;100688.53;5047049;28;20415;-61
2022/08/18 03:25:03;;;;;;;5.95;4.18;;;;;;;26.41;40.92;100690.72;5047033;28;20477;-61
2022/08/18 03:27:28;;;;;;;6.38;4.20;;;;;;;26.40;40.90;100691.78;5047201;28;20392;-60
2022/08/18 03:29:54;;;;;;;8.17;4.10;;;;;;;26.42;40.98;100687.72;5046469;28;20382;-60
2022/08/18 03:32:20;;;;;;;6.40;4.50;;;;;;;26.39;40.96;100690.97;5044445;28;20467;-60
2022/08/18 03:34:45;;;;;;;23.10;5.47;;;;;;;26.41;41.27;100694.22;5046913;28;20460;-60
2022/08/18 03:37:11;;;;;;;18.47;4.90;;;;;;;26.39;41.18;100687.44;5046144;28;20393;-61
2022/08/18 03:39:36;;;;;;;11.85;4.90;;;;;;;26.42;40.98;100689.63;5046659;28;20952;-60
2022/08/18 03:42:02;;;;;;;18.73;4.97;;;;;;;26.44;41.14;100701.03;5046759;28;20388;-60
2022/08/18 03:44:31;;;;;;;22.03;5.47;;;;;;;26.36;41.32;100683.38;5046672;28;20370;-59
2022/08/18 03:46:59;;;;;;;62.38;11.18;;;;;;;26.41;41.17;100693.44;5038720;28;20395;-60
2022/08/18 03:49:25;;;;;;;15.25;5.28;;;;;;;26.39;41.01;100693.69;5026571;28;20387;-60
2022/08/18 03:51:51;;;;;;;12.57;4.72;;;;;;;26.37;41.18;100692.34;5030339;28;20543;-60
2022/08/18 03:54:17;;;;;;;8.93;4.68;;;;;;;26.40;40.87;100699.94;5046455;28;20412;-60
2022/08/18 03:56:44;;;;;;;14.35;4.47;;;;;;;26.51;40.69;100696.13;5046343;28;20397;-61
2022/08/18 03:59:17;;;;;;;8.27;4.28;;;;;;;26.47;40.57;100692.31;5045988;28;20393;-60
2022/08/18 04:01:43;;;;;;;7.10;4.15;;;;;;;26.52;40.93;100695.00;5032041;28;20415;-60
2022/08/18 04:04:14;;;;;;;8.47;4.17;;;;;;;26.57;40.63;100686.84;5026085;28;20466;-60
2022/08/18 04:06:44;;;;;;;8.70;4.53;;;;;;;26.69;40.17;100694.72;5026221;28;20798;-60
2022/08/18 04:09:12;;;;;;;9.90;4.38;;;;;;;26.86;40.19;100694.34;5024632;28;20395;-61
2022/08/18 04:11:42;;;;;;;7.75;4.20;;;;;;;27.08;39.43;100696.69;5025816;28;20526;-61
2022/08/18 04:14:08;;;;;;;7.10;3.90;;;;;;;27.30;39.25;100704.50;5026076;28;20465;-60
2022/08/18 04:16:35;;;;;;;7.77;4.10;;;;;;;27.62;38.70;100711.31;5026027;28;20445;-60
2022/08/18 04:19:02;;;;;;;5.95;4.10;;;;;;;27.84;38.29;100710.88;5025841;28;20396;-61
2022/08/18 04:21:31;;;;;;;5.90;4.00;;;;;;;28.14;37.56;100717.16;5026010;28;20769;-60
2022/08/18 04:24:01;;;;;;;10.15;4.90;;;;;;;28.35;37.26;100721.28;5014283;28;20920;-60
2022/08/18 04:26:27;;;;;;;10.32;4.95;;;;;;;28.46;37.09;100719.25;5012590;28;20380;-60
2022/08/18 04:28:53;;;;;;;7.83;5.13;;;;;;;28.55;36.80;100720.28;5012866;28;20886;-62
2022/08/18 04:31:23;;;;;;;7.47;4.17;;;;;;;28.73;36.48;100731.53;5012741;28;20844;-60
2022/08/18 04:33:48;;;;;;;7.90;4.43;;;;;;;28.84;36.42;100734.94;5012268;28;20482;-60
2022/08/18 04:36:16;;;;;;;6.27;4.03;;;;;;;28.86;36.38;100732.72;5012313;28;20471;-62
2022/08/18 04:38:42;;;;;;;9.10;4.30;;;;;;;29.01;36.00;100735.28;5012273;28;20383;-61
2022/08/18 04:41:10;;;;;;;6.00;4.00;;;;;;;29.32;35.47;100730.22;5012271;28;20471;-61
2022/08/18 04:43:36;;;;;;;5.65;3.80;;;;;;;29.68;35.10;100734.31;5012526;28;20442;-60
2022/08/18 04:46:03;;;;;;;6.82;4.00;;;;;;;29.99;34.44;100736.56;5012486;28;20430;-60
2022/08/18 04:48:34;;;;;;;7.70;4.25;;;;;;;30.23;33.86;100736.38;5012108;28;20396;-61
2022/08/18 04:51:05;;;;;;;7.30;3.72;;;;;;;30.41;33.45;100737.44;5011884;28;20411;-60
2022/08/18 04:53:45;;;;;;;5.03;4.03;;;;;;;30.63;33.22;100732.09;5011974;28;20913;-61
2022/08/18 04:56:25;;;;;;;6.87;4.20;;;;;;;31.09;32.11;100738.53;5011678;28;20471;-61
2022/08/18 04:59:05;;;;;;;10.07;4.40;;;;;;;31.50;31.60;100739.56;5010034;28;20400;-61
2022/08/18 05:01:39;;;;;;;7.47;4.10;;;;;;;31.84;31.35;100733.50;5010285;28;20449;-61
2022/08/18 05:04:06;;;;;;;7.10;3.92;;;;;;;32.22;30.71;100738.56;5009930;28;20404;-61
2022/08/18 05:06:32;;;;;;;9.05;4.20;;;;;;;32.63;30.14;100737.47;5010558;28;20526;-63
2022/08/18 05:09:01;;;;;;;8.80;4.20;;;;;;;34.00;28.06;100727.97;5011029;28;20883;-58
2022/08/18 05:11:32;;;;;;;9.88;4.45;;;;;;;36.60;24.58;100728.13;5010631;28;20435;-60
2022/08/18 05:13:58;;;;;;;9.25;4.57;;;;;;;38.66;22.14;100715.94;5011284;28;20882;-58
2022/08/18 05:16:25;;;;;;;7.93;4.90;;;;;;;40.09;20.36;100722.75;5011520;28;20914;-59
2022/08/18 05:18:52;;;;;;;7.78;4.97;;;;;;;41.17;19.44;100719.53;5011902;28;20395;-60
2022/08/18 05:21:18;;;;;;;10.40;5.10;;;;;;;42.07;18.33;100708.56;5011414;28;20435;-57
2022/08/18 05:23:47;;;;;;;8.77;5.03;;;;;;;43.03;17.45;100707.53;5011802;28;20744;-57
2022/08/18 05:26:14;;;;;;;9.13;5.17;;;;;;;43.84;16.61;100703.34;5011640;28;20407;-59
2022/08/18 05:28:40;;;;;;;8.77;5.10;;;;;;;44.80;15.70;100698.00;5011554;28;20471;-58
2022/08/18 05:31:14;;;;;;;7.57;5.00;;;;;;;45.65;15.06;100697.94;5011457;28;20412;-60
2022/08/18 05:33:40;;;;;;;7.53;5.05;;;;;;;46.47;14.40;100696.44;5011295;28;20384;-59
2022/08/18 05:36:47;;;;;;;7.88;4.85;;;;;;;47.18;13.83;100694.72;5009476;28;20396;-58
2022/08/18 05:39:26;;;;;;;8.38;5.20;;;;;;;47.94;13.15;100687.91;5003831;28;20422;-57
2022/08/18 05:42:12;;;;;;;10.43;5.00;;;;;;;48.53;12.50;100689.22;5011288;28;20388;-60
2022/08/18 05:44:45;;;;;;;18.55;9.65;;;;;;;49.24;12.79;100689.72;5011289;28;20380;-61
2022/08/18 05:47:13;;;;;;;11.75;6.30;;;;;;;49.66;12.23;100683.50;5010960;28;20395;-60
2022/08/18 05:49:43;;;;;;;15.27;7.17;;;;;;;50.27;11.97;100684.75;5010856;28;20376;-60
2022/08/18 05:52:14;;;;;;;14.65;7.75;;;;;;;50.86;11.41;100691.91;5010361;28;20470;-60
2022/08/18 05:57:36;;;;;;;13.50;7.53;;;;;;;52.47;10.51;100681.25;5011101;28;20442;-60
2022/08/18 06:00:04;;;;;;;11.88;6.47;;;;;;;53.02;10.21;100686.44;5010752;28;20388;-58
2022/08/18 06:02:33;;;;;;;6.38;4.28;;;;;;;53.70;9.46;100680.78;5010684;28;20392;-60
2022/08/18 06:05:10;;;;;;;6.65;4.15;;;;;;;54.65;8.79;100681.06;5010949;28;20376;-58
2022/08/18 06:07:36;;;;;;;9.35;5.60;;;;;;;55.37;8.43;100689.72;5010853;28;20477;-59
2022/08/18 06:12:44;;;;;;;7.83;4.00;;;;;;;56.71;7.04;100687.09;5065930;28;20415;-61
2022/08/18 06:15:27;;;;;;;4.68;4.03;;;;;;;57.33;7.15;100673.78;5054234;28;20831;-58
2022/08/18 06:18:28;;;;;;;7.03;4.05;;;;;;;58.02;6.79;100666.84;5052793;28;20416;-60
2022/08/18 06:20:58;;;;;;;5.60;4.07;;;;;;;58.70;5.92;100671.84;5046960;28;20927;-59
2022/08/18 06:23:51;;;;;;;5.20;4.17;;;;;;;59.22;5.68;100668.00;5045136;28;20929;-58
2022/08/18 06:26:33;;;;;;;7.57;4.70;;;;;;;59.44;5.40;100660.81;5046729;28;20903;-60
2022/08/18 06:29:23;;;;;;;7.10;4.63;;;;;;;59.98;5.42;100665.66;5026677;28;20387;-57
2022/08/18 06:32:01;;;;;;;9.25;6.35;;;;;;;60.39;4.99;100663.09;5044022;28;20414;-59
2022/08/18 06:34:42;;;;;;;11.20;7.60;;;;;;;60.69;4.85;100661.75;5046073;28;20848;-59
2022/08/18 06:37:22;;;;;;;10.17;7.63;;;;;;;60.88;4.97;100673.44;5045994;28;20394;-58
2022/08/18 06:39:50;;;;;;;11.60;8.02;;;;;;;61.28;5.19;100657.69;5045787;28;20393;-59
2022/08/18 06:42:25;;;;;;;10.40;7.88;;;;;;;61.64;4.83;100657.75;5046088;28;20496;-60
2022/08/18 06:45:11;;;;;;;11.47;8.43;;;;;;;61.74;4.57;100658.22;5046215;28;20382;-60
2022/08/18 06:47:39;;;;;;;12.40;8.90;;;;;;;62.00;4.42;100660.66;5046618;28;20492;-59
2022/08/18 06:50:14;;;;;;;9.75;7.57;;;;;;;62.20;4.59;100656.56;5046473;28;20389;-60
2022/08/18 06:52:53;;;;;;;9.73;6.55;;;;;;;62.06;4.24;100657.72;5046392;28;20477;-60
2022/08/18 06:55:40;;;;;;;11.85;7.88;;;;;;;62.36;4.50;100656.97;5045854;28;20447;-61
2022/08/18 06:58:12;;;;;;;8.23;6.22;;;;;;;62.45;4.02;100657.41;5043212;28;20544;-60
2022/08/18 07:00:42;;;;;;;7.55;5.03;;;;;;;62.59;3.96;100657.53;5044019;28;20443;-59
2022/08/18 07:03:14;;;;;;;6.32;5.07;;;;;;;62.84;3.97;100653.34;5046405;28;20764;-59
2022/08/18 07:06:03;;;;;;;8.43;6.67;;;;;;;62.97;3.87;100644.06;5045254;28;20416;-59
2022/08/18 07:08:39;;;;;;;5.35;4.70;;;;;;;63.29;3.54;100649.16;5045021;28;20389;-57
2022/08/18 07:11:21;;;;;;;10.75;5.90;;;;;;;63.14;3.48;100654.56;5044360;28;20425;-58
2022/08/18 07:14:21;;;;;;;8.90;5.47;;;;;;;62.72;3.41;100645.41;5044979;28;20395;-61
2022/08/18 07:16:47;;;;;;;5.90;5.40;;;;;;;60.92;4.67;100640.31;5043401;28;20532;-59
2022/08/18 07:19:19;;;;;;;8.70;6.53;;;;;;;58.47;5.48;100635.84;5043090;28;20444;-61
2022/08/18 07:21:46;;;;;;;6.18;5.57;;;;;;;56.95;6.27;100632.84;5042482;28;20463;-59
2022/08/18 07:24:20;;;;;;;5.85;5.35;;;;;;;56.61;6.71;100632.34;5029935;28;20406;-59
2022/08/18 07:27:06;;;;;;;5.70;5.18;;;;;;;58.59;5.87;100620.34;5027369;28;20432;-60
2022/08/18 07:29:36;;;;;;;6.57;5.18;;;;;;;60.01;5.23;100636.00;5030139;28;20714;-59
2022/08/18 07:32:17;;;;;;;7.22;5.63;;;;;;;59.59;5.52;100632.00;5031101;28;20418;-58
2022/08/18 07:34:53;;;;;;;6.88;5.10;;;;;;;57.27;6.11;100632.22;5037937;28;20394;-59
2022/08/18 07:37:26;;;;;;;4.53;4.13;;;;;;;54.33;8.10;100635.09;5032115;28;20390;-59
2022/08/18 07:40:04;;;;;;;7.00;5.38;;;;;;;51.81;9.54;100639.56;5032114;28;20389;-57
2022/08/18 07:42:47;;;;;;;7.90;4.78;;;;;;;50.04;10.32;100641.41;5029381;28;20390;-60
2022/08/18 07:45:25;;;;;;;6.65;4.80;;;;;;;48.68;11.07;100642.72;5030402;28;20774;-58
2022/08/18 07:47:58;;;;;;;7.45;4.47;;;;;;;47.75;12.09;100642.50;5030093;28;20469;-58
2022/08/18 07:50:26;;;;;;;6.78;3.45;;;;;;;47.10;12.67;100645.53;5030395;28;20899;-60
2022/08/18 07:53:17;;;;;;;5.78;3.75;;;;;;;46.33;13.02;100649.69;5030388;28;20398;-59
2022/08/18 07:55:53;;;;;;;7.32;3.60;;;;;;;45.55;13.91;100652.03;5029971;28;20407;-58
2022/08/18 07:58:33;;;;;;;4.47;3.25;;;;;;;45.01;14.05;100638.38;5029547;28;20413;-58
2022/08/18 08:01:31;;;;;;;6.03;3.20;;;;;;;44.50;14.29;100645.34;5029896;28;20394;-62
2022/08/18 08:04:14;;;;;;;6.68;3.75;;;;;;;43.86;14.96;100647.88;5030939;28;20477;-61
2022/08/18 08:06:49;;;;;;;5.18;3.22;;;;;;;43.43;15.18;100655.44;5031301;28;20390;-60
2022/08/18 08:09:33;;;;;;;4.80;3.30;;;;;;;43.16;15.16;100647.41;5030585;28;21612;-59
2022/08/18 08:12:09;;;;;;;7.00;3.50;;;;;;;42.98;15.46;100647.34;5043441;28;20455;-58
2022/08/18 08:14:42;;;;;;;5.20;3.00;;;;;;;42.52;16.29;100653.53;5040577;28;20831;-59
2022/08/18 08:17:16;;;;;;;4.85;3.40;;;;;;;42.08;17.08;100648.88;5049673;28;20408;-60
2022/08/18 08:19:44;;;;;;;6.70;3.30;;;;;;;41.52;17.09;100657.13;5050424;28;20392;-59
2022/08/18 08:22:22;;;;;;;3.60;3.25;;;;;;;41.20;17.51;100646.47;5049742;28;20407;-59
2022/08/18 08:24:57;;;;;;;4.55;3.13;;;;;;;41.08;17.48;100647.53;5036145;28;20395;-60
2022/08/18 08:28:06;;;;;;;3.45;2.63;;;;;;;40.68;18.20;100654.59;5052392;28;20874;-60
2022/08/18 08:30:37;;;;;;;4.65;3.08;;;;;;;40.24;18.61;100655.13;5043477;28;20427;-57
2022/08/18 08:33:24;;;;;;;4.28;3.00;;;;;;;40.11;18.70;100656.53;5050531;28;20385;-59
2022/08/18 08:35:55;;;;;;;5.67;3.00;;;;;;;40.14;18.24;100653.03;5048720;28;20445;-59
2022/08/18 08:38:26;;;;;;;5.38;2.90;;;;;;;39.99;18.81;100651.19;5050291;28;20420;-61
2022/08/18 08:41:09;;;;;;;4.75;3.15;;;;;;;39.83;18.82;100659.63;5052298;28;20405;-59
2022/08/18 08:43:41;;;;;;;4.50;2.70;;;;;;;39.64;19.26;100654.97;5052999;28;20388;-60
2022/08/18 08:46:19;;;;;;;4.30;2.55;;;;;;;39.58;18.71;100660.00;5046165;28;20488;-58
2022/08/18 08:49:09;;;;;;;3.97;2.90;;;;;;;39.50;19.28;100659.06;5050404;28;20961;-61
2022/08/18 08:51:45;;;;;;;4.25;3.05;;;;;;;39.52;19.28;100658.72;5055137;28;20425;-60
2022/08/18 08:54:11;;;;;;;5.45;3.10;;;;;;;39.29;19.58;100661.41;5050727;28;20746;-59
2022/08/18 08:56:43;;;;;;;5.43;2.77;;;;;;;39.05;19.92;100660.56;5058191;28;20385;-59
2022/08/18 08:59:12;;;;;;;5.97;2.90;;;;;;;38.97;19.99;100664.38;5047465;28;20525;-59
2022/08/18 09:01:50;;;;;;;4.38;2.83;;;;;;;38.91;20.35;100657.50;5048516;28;20910;-59
2022/08/18 09:04:25;;;;;;;6.30;2.80;;;;;;;38.77;20.08;100656.03;5049360;28;20413;-58
2022/08/18 09:06:50;;;;;;;6.15;2.97;;;;;;;38.78;20.03;100649.31;5045702;28;20405;-57
2022/08/18 09:09:57;;;;;;;3.40;2.90;;;;;;;38.94;20.05;100646.47;5062113;28;20395;-58
2022/08/18 09:12:24;;;;;;;3.45;2.65;;;;;;;38.98;19.77;100650.09;5041369;28;20420;-58
2022/08/18 09:15:17;;;;;;;3.33;2.85;;;;;;;39.06;19.63;100645.56;5051148;28;20901;-58
2022/08/18 09:18:00;;;;;;;4.55;2.90;;;;;;;39.10;19.91;100638.09;5044470;28;20423;-59
2022/08/18 09:21:18;;;;;;;3.47;3.00;;;;;;;39.08;20.29;100632.13;5048670;28;20913;-58
2022/08/18 09:23:47;;;;;;;6.50;3.17;;;;;;;39.13;19.95;100631.00;5053726;28;20833;-59
2022/08/18 09:26:45;;;;;;;4.07;2.95;;;;;;;39.15;19.39;100625.94;5050308;28;20444;-59
2022/08/18 09:29:45;;;;;;;4.77;2.90;;;;;;;39.17;19.95;100621.59;5047909;28;20426;-59
2022/08/18 09:32:21;;;;;;;4.45;2.72;;;;;;;39.22;19.42;100614.16;5044974;28;20493;-58
2022/08/18 09:34:59;;;;;;;5.65;2.92;;;;;;;39.22;19.43;100611.38;5043149;28;20499;-59
2022/08/18 09:44:08;;;;;;;4.70;2.90;;;;;;;39.16;18.99;100595.03;5045105;28;20461;-58
2022/08/18 09:46:40;;;;;;;5.93;2.90;;;;;;;39.13;18.75;100595.81;5040320;28;20398;-58
2022/08/18 09:49:24;;;;;;;4.28;2.90;;;;;;;39.07;18.30;100593.69;5048640;28;20453;-60
2022/08/18 09:52:21;;;;;;;7.50;2.80;;;;;;;38.78;18.99;100602.22;5041282;28;21191;-58
2022/08/18 09:55:16;;;;;;;4.97;2.80;;;;;;;38.60;18.74;100601.06;5019747;28;20423;-57
2022/08/18 09:57:43;;;;;;;3.47;2.95;;;;;;;38.57;18.92;100588.75;5010545;28;20413;-58
2022/08/18 10:00:11;;;;;;;7.30;2.80;;;;;;;38.56;18.37;100595.44;5040736;28;20415;-59
2022/08/18 10:02:38;;;;;;;2.95;2.60;;;;;;;38.62;18.77;100596.75;5037469;28;20415;-58
2022/08/18 10:05:19;;;;;;;3.85;2.70;;;;;;;38.51;19.50;100583.81;5038137;28;20396;-59
2022/08/18 10:07:47;;;;;;;4.70;2.83;;;;;;;38.46;19.22;100590.44;5041868;28;20898;-58
2022/08/18 10:10:38;;;;;;;5.82;2.83;;;;;;;38.52;18.07;100586.22;5042657;28;20521;-59
2022/08/18 10:13:28;;;;;;;3.55;2.50;;;;;;;38.62;18.26;100587.63;5046746;28;20421;-58
2022/08/18 10:16:31;;;;;;;3.38;2.78;;;;;;;38.68;18.14;100582.59;5037720;28;20577;-58
2022/08/18 10:19:28;;;;;;;3.20;2.70;;;;;;;38.71;18.65;100577.13;5046651;28;20410;-60
2022/08/18 10:22:00;;;;;;;3.90;2.70;;;;;;;38.53;19.06;100578.72;5038293;28;20767;-60
2022/08/18 10:24:52;;;;;;;2.90;2.70;;;;;;;38.39;19.72;100577.28;5043605;28;20410;-58
2022/08/18 10:27:33;;;;;;;2.90;2.67;;;;;;;37.98;20.02;100587.00;5046942;28;20409;-61
2022/08/18 10:29:59;;;;;;;4.05;2.60;;;;;;;37.99;18.69;100571.97;5040174;28;20467;-56
2022/08/18 10:32:38;;;;;;;6.65;2.70;;;;;;;37.97;18.16;100582.63;5043774;28;21007;-59
2022/08/18 10:35:05;;;;;;;2.60;2.05;;;;;;;37.92;17.68;100574.59;5048475;28;20404;-57
2022/08/18 10:37:47;;;;;;;3.97;2.30;;;;;;;38.10;17.63;100564.75;5041802;28;20408;-58
2022/08/18 10:40:19;;;;;;;3.75;2.40;;;;;;;38.16;17.73;100573.56;5043964;28;20492;-59
2022/08/18 10:43:07;;;;;;;4.03;2.57;;;;;;;38.24;18.11;100570.59;5047541;28;20425;-58
2022/08/18 10:45:44;;;;;;;3.38;2.47;;;;;;;38.32;17.95;100567.97;5048142;28;20392;-59
2022/08/18 10:48:31;;;;;;;3.33;2.30;;;;;;;38.36;17.97;100572.44;5044700;28;20435;-56
2022/08/18 10:51:24;;;;;;;2.97;2.40;;;;;;;38.40;18.31;100559.47;5045461;28;20417;-57
2022/08/18 10:53:49;;;;;;;3.83;2.38;;;;;;;38.50;18.23;100562.81;5040041;28;20395;-59
2022/08/18 10:56:53;;;;;;;4.93;2.60;;;;;;;38.55;18.47;100551.44;5043858;28;20383;-58
2022/08/18 10:59:27;;;;;;;5.70;2.57;;;;;;;38.56;18.29;100553.09;5047802;28;20443;-60
2022/08/18 11:01:58;;;;;;;4.35;2.63;;;;;;;38.56;18.34;100542.81;5054564;28;20395;-59
2022/08/18 11:04:33;;;;;;;4.03;2.55;;;;;;;38.63;18.47;100547.69;5059778;28;20395;-59
2022/08/18 11:07:05;;;;;;;3.25;2.42;;;;;;;38.69;18.06;100539.91;5045627;28;20403;-60
2022/08/18 11:09:32;;;;;;;6.30;2.47;;;;;;;38.69;18.00;100542.66;5046220;28;20491;-58
2022/08/18 11:12:00;;;;;;;5.18;2.53;;;;;;;38.67;17.86;100545.00;5046392;28;20782;-60
2022/08/18 11:14:32;;;;;;;3.58;2.60;;;;;;;38.65;17.49;100539.81;5050827;28;20408;-58
2022/08/18 11:17:01;;;;;;;3.67;2.78;;;;;;;38.71;17.78;100541.13;5046457;28;20504;-58
2022/08/18 11:19:27;;;;;;;6.15;2.70;;;;;;;38.71;17.90;100540.31;5048999;28;20397;-59
2022/08/18 11:21:53;;;;;;;3.88;2.60;;;;;;;38.70;17.66;100541.47;5058893;28;20393;-57
2022/08/18 11:24:27;;;;;;;3.30;2.50;;;;;;;38.68;17.55;100541.88;5050358;28;20390;-58
2022/08/18 11:26:56;;;;;;;3.33;2.30;;;;;;;38.61;17.49;100548.06;5058217;28;20757;-57
2022/08/18 11:29:37;;;;;;;4.60;2.70;;;;;;;38.64;17.57;100549.28;5059625;28;20488;-58
2022/08/18 11:32:08;;;;;;;3.83;2.40;;;;;;;38.65;17.79;100542.59;5058101;28;20453;-57
2022/08/18 11:34:46;;;;;;;4.47;2.60;;;;;;;38.65;17.86;100544.56;5055156;28;20460;-60
2022/08/18 11:37:22;;;;;;;3.47;2.47;;;;;;;38.65;17.64;100542.59;5060616;28;20395;-57
2022/08/18 11:39:51;;;;;;;4.47;2.60;;;;;;;38.67;17.51;100539.47;5057245;28;20383;-58
2022/08/18 11:42:25;;;;;;;5.18;2.10;;;;;;;38.57;17.47;100533.34;5054023;28;20396;-58
2022/08/18 11:44:54;;;;;;;4.43;2.42;;;;;;;38.53;17.45;100526.09;5037710;28;20397;-59
2022/08/18 11:47:21;;;;;;;4.35;2.50;;;;;;;38.44;17.49;100526.31;5062109;28;20402;-58
2022/08/18 11:50:24;;;;;;;5.75;2.40;;;;;;;38.48;17.56;100529.94;5054537;28;20918;-57
2022/08/18 11:52:52;;;;;;;3.97;2.70;;;;;;;38.49;17.41;100520.47;5041758;28;20474;-58
2022/08/18 11:55:34;;;;;;;7.13;2.20;;;;;;;38.50;17.38;100513.78;5053394;28;20944;-58
2022/08/18 11:58:01;;;;;;;3.47;2.40;;;;;;;38.56;17.61;100517.09;5053414;28;20501;-57
2022/08/18 12:00:52;;;;;;;2.35;2.13;;;;;;;38.54;17.21;100517.44;5053927;28;20400;-58
2022/08/18 12:03:39;;;;;;;7.30;2.50;;;;;;;38.51;17.45;100520.91;5056270;28;20480;-58
2022/08/18 12:06:52;;;;;;;8.02;2.85;;;;;;;38.56;17.27;100520.66;5054116;28;20457;-59
2022/08/18 12:09:22;;;;;;;3.60;2.07;;;;;;;38.49;16.95;100509.41;5013860;28;20409;-59
2022/08/18 12:11:55;;;;;;;4.78;2.30;;;;;;;38.47;16.83;100503.44;5056982;28;20427;-63
2022/08/18 12:14:26;;;;;;;2.35;2.03;;;;;;;38.44;17.11;100512.47;5054696;28;20396;-58
2022/08/18 12:16:52;;;;;;;4.53;2.17;;;;;;;38.42;16.82;100512.81;5054533;28;20400;-60
2022/08/18 12:19:18;;;;;;;3.47;2.33;;;;;;;38.46;16.86;100501.81;5053520;28;20388;-59
2022/08/18 12:21:50;;;;;;;4.60;2.20;;;;;;;38.47;16.81;100494.34;5054222;28;20410;-59